Heron, Montana
Current Conditions -  °F | °C
As of 10:15 AM on Sunday 21 Dec 2014 (Local Time) from KSZT Reporting Station
Clear Clear  
Wind Chill: 37°   Ceiling: Unl
Heat Index: 43°   Visibility: 10mi
Dew Point: 37°   Wind: 10mph
Humidity: 81%   Direction: 260°W
Pressure: 29.65"   Gusts: 17mph
Location:  48.06°N, 115.96°W
Report Text: KSZT 211715Z AUTO 26009G15KT 10SM CLR 06/03 A2965 RMK AO2
Loading
Personal Weather Stations






























Interactive Weather Map New forecast layout! Learn more

10-Day Weather Forecast

Advertisements
Track Severe Weather on mobile